Time;durP1;ratioP1;P1;durP2;ratioP2;P2;SDS_P1;SDS_P2;PMS_P1;PMS_P2;Temp;Humidity;BMP_temperature;BMP_pressure;BME280_temperature;BME280_humidity;BME280_pressure;Samples;Min_cycle;Max_cycle;Signal;HPM_P1;HPM_P2
2022/06/01 00:00:48;;;;;;;1.63;0.40;;;;;;;8.39;73.86;99864.69;5034625;28;20052;-59
2022/06/01 00:03:18;;;;;;;0.40;0.40;;;;;;;8.48;74.38;99864.56;5038296;28;20053;-59
2022/06/01 00:05:50;;;;;;;1.48;0.40;;;;;;;8.56;73.90;99870.53;5036159;28;20061;-59
2022/06/01 00:08:21;;;;;;;1.20;0.40;;;;;;;8.58;73.71;99883.53;5037785;28;20076;-59
2022/06/01 00:10:53;;;;;;;0.30;0.30;;;;;;;8.54;73.55;99882.72;5034639;28;20109;-59
2022/06/01 00:13:24;;;;;;;0.40;0.40;;;;;;;8.52;73.87;99887.09;5038251;28;20092;-59
2022/06/01 00:15:56;;;;;;;0.30;0.30;;;;;;;8.58;73.92;99883.53;5038609;28;20112;-60
2022/06/01 00:18:27;;;;;;;1.45;0.40;;;;;;;8.57;73.63;99892.22;5032777;28;20054;-60
2022/06/01 00:20:57;;;;;;;0.50;0.50;;;;;;;8.40;74.13;99858.63;5030737;28;20121;-60
2022/06/01 00:23:28;;;;;;;0.40;0.40;;;;;;;8.57;74.06;99887.88;5026232;28;20344;-60
2022/06/01 00:25:59;;;;;;;0.30;0.30;;;;;;;8.71;74.90;99890.31;5033360;28;20050;-60
2022/06/01 00:28:31;;;;;;;0.30;0.30;;;;;;;8.74;73.73;99881.56;5035452;28;20049;-60
2022/06/01 00:31:03;;;;;;;5.07;0.45;;;;;;;8.90;72.98;99888.25;5035866;28;20068;-60
2022/06/01 00:33:34;;;;;;;13.93;12.73;;;;;;;9.07;73.28;99886.25;5037874;28;20100;-60
2022/06/01 00:36:07;;;;;;;13.30;12.20;;;;;;;9.22;72.96;99892.09;5037876;28;20088;-60
2022/06/01 00:38:37;;;;;;;16.05;14.80;;;;;;;9.33;72.68;99884.94;5035204;28;20072;-60
2022/06/01 00:41:08;;;;;;;2.30;2.20;;;;;;;9.46;71.13;99876.03;5037651;28;20052;-60
2022/06/01 00:43:44;;;;;;;1.83;0.90;;;;;;;9.56;70.89;99875.84;5037573;28;20060;-60
2022/06/01 00:46:16;;;;;;;1.38;1.00;;;;;;;9.66;70.22;99867.84;5037730;28;20099;-60
2022/06/01 00:48:52;;;;;;;0.30;0.30;;;;;;;9.82;70.44;99878.84;5036950;28;20049;-60
2022/06/01 00:51:26;;;;;;;2.60;0.50;;;;;;;10.00;70.47;99866.31;5021563;28;20056;-60
2022/06/01 00:53:59;;;;;;;0.50;0.50;;;;;;;10.17;70.48;99868.56;5035651;28;20041;-60
2022/06/01 00:56:36;;;;;;;2.45;0.40;;;;;;;10.25;69.22;99866.66;5026966;28;20082;-61
2022/06/01 00:59:10;;;;;;;0.30;0.30;;;;;;;9.82;68.34;99790.13;5032777;28;20629;-59
2022/06/01 01:01:43;;;;;;;0.30;0.30;;;;;;;10.18;68.07;99839.81;5019984;28;20073;-59
2022/06/01 01:04:14;;;;;;;0.60;0.40;;;;;;;10.45;68.50;99858.41;5017727;28;20054;-60
2022/06/01 01:06:45;;;;;;;0.30;0.30;;;;;;;10.60;68.36;99858.06;5018529;28;20077;-60
2022/06/01 01:09:16;;;;;;;0.40;0.40;;;;;;;10.58;67.50;99844.16;5018495;28;20117;-60
2022/06/01 01:11:49;;;;;;;0.43;0.35;;;;;;;10.53;66.09;99840.81;5017872;28;20157;-59
2022/06/01 01:14:22;;;;;;;0.85;0.30;;;;;;;10.55;67.48;99839.03;5017940;28;20080;-60
2022/06/01 01:16:55;;;;;;;1.25;0.40;;;;;;;10.76;66.88;99859.44;5018169;28;20085;-60
2022/06/01 01:19:34;;;;;;;0.47;0.30;;;;;;;10.85;67.31;99873.19;5018085;28;20089;-60
2022/06/01 01:22:20;;;;;;;2.78;2.58;;;;;;;11.06;68.64;99872.66;5018057;28;20248;-60
2022/06/01 01:25:17;;;;;;;4.78;0.82;;;;;;;11.19;67.71;99874.06;5017882;28;20066;-60
2022/06/01 01:27:51;;;;;;;1.20;0.52;;;;;;;11.22;67.42;99876.59;5018130;28;20050;-60
2022/06/01 01:30:46;;;;;;;1.48;0.50;;;;;;;11.10;66.10;99873.44;5017627;28;20336;-60
2022/06/01 01:33:19;;;;;;;0.38;0.30;;;;;;;10.72;66.00;99849.94;5016145;28;20057;-60
2022/06/01 01:35:52;;;;;;;0.90;0.40;;;;;;;10.93;68.15;99882.56;5017956;28;20053;-59
2022/06/01 01:38:32;;;;;;;0.30;0.30;;;;;;;11.08;68.23;99876.09;5017848;28;20053;-60
2022/06/01 01:41:14;;;;;;;0.40;0.40;;;;;;;11.29;67.77;99884.31;5017778;28;20265;-60
2022/06/01 01:43:55;;;;;;;1.90;0.75;;;;;;;11.53;68.60;99883.69;5017750;28;20057;-60
2022/06/01 01:46:30;;;;;;;5.97;0.82;;;;;;;11.83;69.35;99881.13;5017785;28;20360;-60
2022/06/01 01:49:02;;;;;;;0.63;0.40;;;;;;;12.01;68.27;99891.13;5017805;28;20057;-60
2022/06/01 01:51:33;;;;;;;1.70;0.50;;;;;;;11.62;66.52;99867.72;5017624;28;20049;-60
2022/06/01 01:54:08;;;;;;;2.30;0.50;;;;;;;11.55;67.51;99881.84;5017463;28;20057;-60
2022/06/01 01:56:57;;;;;;;0.50;0.50;;;;;;;11.74;68.28;99881.38;5017370;28;20108;-59
2022/06/01 01:59:38;;;;;;;1.05;0.50;;;;;;;11.60;68.62;99817.19;5017360;28;20058;-60
2022/06/01 02:02:18;;;;;;;1.75;0.40;;;;;;;12.09;67.85;99862.94;5017421;28;20042;-60
2022/06/01 02:07:55;;;;;;;1.70;0.40;;;;;;;12.40;67.15;99872.50;5017531;28;20472;-60
2022/06/01 02:13:16;;;;;;;2.15;0.50;;;;;;;12.50;67.19;99884.47;5017355;28;20065;-60
2022/06/01 02:15:50;;;;;;;3.15;0.68;;;;;;;12.73;68.29;99880.28;5017723;28;20096;-60
2022/06/01 02:18:24;;;;;;;3.28;0.50;;;;;;;12.88;67.63;99874.53;5017456;28;20344;-60
2022/06/01 02:20:59;;;;;;;1.10;0.38;;;;;;;12.73;65.34;99880.28;5017236;28;20108;-60
2022/06/01 02:23:31;;;;;;;1.80;0.40;;;;;;;12.32;65.68;99885.00;5016271;28;20283;-60
2022/06/01 02:26:02;;;;;;;0.50;0.50;;;;;;;11.98;68.03;99799.56;5017255;28;20057;-60
2022/06/01 02:28:38;;;;;;;0.30;0.30;;;;;;;12.67;67.50;99881.28;5017146;28;20081;-60
2022/06/01 02:31:10;;;;;;;0.43;0.43;;;;;;;12.79;67.67;99869.56;5017191;28;20042;-60
2022/06/01 02:33:43;;;;;;;2.53;0.70;;;;;;;13.12;67.78;99872.00;5017168;28;20053;-60
2022/06/01 02:36:16;;;;;;;2.92;1.10;;;;;;;13.27;66.18;99866.28;5020407;28;20046;-60
2022/06/01 02:38:50;;;;;;;0.40;0.40;;;;;;;13.14;64.21;99870.19;5035314;28;20045;-59
2022/06/01 02:44:09;;;;;;;2.55;0.60;;;;;;;13.03;66.74;99840.81;5032621;28;20041;-60
2022/06/01 02:46:39;;;;;;;2.42;0.63;;;;;;;13.25;65.90;99868.06;5032436;28;20136;-60
2022/06/01 02:49:10;;;;;;;0.98;0.60;;;;;;;13.27;67.00;99871.53;5032116;28;20348;-59
2022/06/01 02:51:41;;;;;;;3.00;0.60;;;;;;;13.47;66.66;99862.13;5032471;28;20056;-60
2022/06/01 02:54:12;;;;;;;1.98;0.68;;;;;;;13.69;67.68;99867.47;5032719;28;20057;-60
2022/06/01 02:56:42;;;;;;;2.25;1.17;;;;;;;13.63;66.16;99868.56;5032281;28;20065;-60
2022/06/01 02:59:15;;;;;;;0.93;0.60;;;;;;;13.56;66.89;99872.31;5032679;28;20045;-60
2022/06/01 03:01:46;;;;;;;1.60;0.63;;;;;;;13.50;66.79;99872.50;5031867;28;20057;-59
2022/06/01 03:04:16;;;;;;;14.88;2.20;;;;;;;13.43;67.63;99871.00;5031065;28;20057;-60
2022/06/01 03:06:47;;;;;;;7.00;0.80;;;;;;;13.38;67.21;99874.66;5030882;28;20057;-60
2022/06/01 03:09:36;;;;;;;2.03;1.02;;;;;;;13.34;68.00;99874.81;5032196;28;20049;-60
2022/06/01 03:12:08;;;;;;;1.67;0.80;;;;;;;13.23;67.68;99858.53;5030834;28;20095;-60
2022/06/01 03:14:41;;;;;;;1.40;0.68;;;;;;;13.14;67.66;99865.81;5031265;28;20053;-59
2022/06/01 03:17:12;;;;;;;1.10;0.50;;;;;;;13.04;67.90;99874.03;5032584;28;20100;-59
2022/06/01 03:19:42;;;;;;;0.68;0.68;;;;;;;12.90;68.55;99866.59;5032797;28;20452;-60
2022/06/01 03:22:12;;;;;;;0.70;0.70;;;;;;;12.86;68.68;99871.09;5032761;28;20328;-61
2022/06/01 03:24:43;;;;;;;1.73;0.95;;;;;;;12.91;69.45;99858.69;5032443;28;20212;-60
2022/06/01 03:27:13;;;;;;;0.57;0.47;;;;;;;12.80;69.17;99834.56;5032620;28;20061;-60
2022/06/01 03:29:45;;;;;;;2.05;0.70;;;;;;;12.99;69.42;99865.47;5032072;28;20314;-60
2022/06/01 03:32:16;;;;;;;2.05;0.68;;;;;;;13.00;69.96;99869.78;5032766;28;20053;-60
2022/06/01 03:34:46;;;;;;;3.20;0.70;;;;;;;12.93;69.82;99866.53;5034292;28;20635;-60
2022/06/01 03:37:16;;;;;;;8.15;0.90;;;;;;;12.88;70.40;99868.41;5036130;28;20061;-60
2022/06/01 03:39:47;;;;;;;3.33;0.65;;;;;;;12.77;70.40;99870.53;5036029;28;20127;-60
2022/06/01 03:42:17;;;;;;;3.17;0.98;;;;;;;12.63;70.37;99884.06;5036115;28;20053;-60
2022/06/01 03:47:36;;;;;;;3.97;0.82;;;;;;;12.31;71.72;99878.06;5036002;28;20053;-61
2022/06/01 03:50:08;;;;;;;8.63;1.00;;;;;;;12.23;71.97;99874.78;5035963;28;20041;-60
2022/06/01 03:52:41;;;;;;;1.17;0.82;;;;;;;12.12;71.78;99866.38;5035668;28;20095;-60
2022/06/01 03:55:11;;;;;;;4.78;1.00;;;;;;;12.06;72.00;99873.53;5035484;28;20052;-60
2022/06/01 03:57:42;;;;;;;5.15;2.03;;;;;;;12.01;72.40;99879.78;5035402;28;20136;-59
2022/06/01 04:00:18;;;;;;;4.45;1.30;;;;;;;11.88;72.62;99876.63;5035795;28;20067;-59
2022/06/01 04:02:48;;;;;;;4.75;1.60;;;;;;;11.80;72.52;99875.97;5035746;28;20350;-60
2022/06/01 04:05:20;;;;;;;11.65;1.90;;;;;;;11.69;72.76;99863.19;5035514;28;20106;-59
2022/06/01 04:07:51;;;;;;;2.10;1.15;;;;;;;11.66;72.72;99858.91;5034144;28;20045;-59
2022/06/01 04:10:21;;;;;;;1.88;1.15;;;;;;;11.76;73.00;99863.88;5035249;28;20053;-60
2022/06/01 04:12:58;;;;;;;2.78;1.30;;;;;;;11.85;72.95;99861.84;5034189;28;20370;-60
2022/06/01 04:15:30;;;;;;;5.15;1.10;;;;;;;11.86;72.58;99865.34;5034986;28;20051;-61
2022/06/01 04:18:00;;;;;;;3.75;1.27;;;;;;;11.90;72.89;99869.59;5035365;28;20065;-60
2022/06/01 04:20:31;;;;;;;1.00;0.90;;;;;;;11.95;72.93;99859.84;5035505;28;20061;-61
2022/06/01 04:23:02;;;;;;;9.18;1.63;;;;;;;11.95;73.07;99854.63;5035106;28;20057;-60
2022/06/01 04:25:33;;;;;;;3.83;1.67;;;;;;;11.94;72.81;99857.31;5035045;28;20072;-61
2022/06/01 04:28:03;;;;;;;5.82;1.90;;;;;;;12.06;72.73;99863.03;5033386;28;20053;-60
2022/06/01 04:30:35;;;;;;;7.60;2.30;;;;;;;12.06;72.19;99878.75;5034687;28;20063;-60
2022/06/01 04:33:06;;;;;;;6.55;1.55;;;;;;;11.83;72.52;99860.16;5033453;28;20084;-60
2022/06/01 04:35:37;;;;;;;5.22;1.30;;;;;;;12.02;72.21;99877.13;5033771;28;20037;-60
2022/06/01 04:38:18;;;;;;;5.32;1.50;;;;;;;12.13;72.57;99868.09;5034144;28;20103;-60
2022/06/01 04:40:50;;;;;;;4.20;1.20;;;;;;;12.18;72.10;99874.94;5034208;28;20378;-60
2022/06/01 04:43:22;;;;;;;6.75;1.48;;;;;;;12.19;72.62;99878.41;5034177;28;20115;-60
2022/06/01 04:45:58;;;;;;;11.00;5.80;;;;;;;12.27;72.44;99871.16;5032349;28;20053;-60
2022/06/01 04:48:29;;;;;;;2.53;1.30;;;;;;;12.18;72.29;99863.56;5033783;28;20057;-61
2022/06/01 04:51:01;;;;;;;4.00;1.02;;;;;;;12.24;72.40;99866.03;5034294;28;20108;-60
2022/06/01 04:53:32;;;;;;;4.53;1.10;;;;;;;11.96;72.17;99840.66;5034540;28;20115;-60
2022/06/01 04:56:02;;;;;;;1.98;1.05;;;;;;;12.17;73.03;99864.50;5034191;28;20105;-60
2022/06/01 04:58:33;;;;;;;3.28;1.13;;;;;;;12.20;73.11;99864.41;5034314;28;20057;-60
2022/06/01 05:01:09;;;;;;;2.80;1.10;;;;;;;12.21;73.26;99856.50;5034259;28;20053;-61
2022/06/01 05:03:40;;;;;;;8.75;1.40;;;;;;;12.19;73.14;99863.53;5034265;28;20296;-60
2022/06/01 05:06:10;;;;;;;8.32;1.13;;;;;;;12.14;73.11;99856.72;5034082;28;20385;-60
2022/06/01 05:08:40;;;;;;;4.55;1.13;;;;;;;12.07;72.80;99848.19;5033528;28;20061;-61
2022/06/01 05:11:11;;;;;;;3.35;1.10;;;;;;;11.99;73.13;99856.25;5034091;28;20622;-61
2022/06/01 05:13:49;;;;;;;4.43;1.13;;;;;;;11.94;73.29;99852.06;5033656;28;20068;-61
2022/06/01 05:16:21;;;;;;;8.82;1.85;;;;;;;11.91;74.00;99858.25;5033312;28;20057;-61
2022/06/01 05:18:52;;;;;;;5.20;1.75;;;;;;;11.95;74.22;99844.16;5033216;28;20054;-60
2022/06/01 05:21:22;;;;;;;3.67;1.40;;;;;;;11.95;73.99;99846.78;5032900;28;20071;-60
2022/06/01 05:23:53;;;;;;;6.65;1.00;;;;;;;11.99;73.86;99843.16;5034046;28;20056;-60
2022/06/01 05:26:23;;;;;;;5.05;1.15;;;;;;;12.00;73.44;99844.88;5034042;28;20056;-60
2022/06/01 05:28:54;;;;;;;3.47;0.90;;;;;;;12.09;73.62;99849.84;5034198;28;20068;-61
2022/06/01 05:31:27;;;;;;;4.93;1.10;;;;;;;12.15;73.05;99846.19;5034059;28;20071;-60
2022/06/01 05:33:58;;;;;;;2.10;1.05;;;;;;;12.17;72.68;99843.53;5033663;28;20045;-60
2022/06/01 05:36:29;;;;;;;1.90;1.20;;;;;;;12.13;72.61;99840.16;5032483;28;20067;-61
2022/06/01 05:38:59;;;;;;;5.78;1.88;;;;;;;12.14;72.84;99827.91;5033936;28;20049;-61
2022/06/01 05:41:30;;;;;;;3.45;1.20;;;;;;;12.02;72.79;99814.28;5033850;28;20106;-60
2022/06/01 05:44:01;;;;;;;2.97;1.58;;;;;;;12.12;73.11;99824.47;5033511;28;20064;-60
2022/06/01 05:46:35;;;;;;;4.63;1.48;;;;;;;12.25;72.91;99829.28;5032473;28;20068;-60
2022/06/01 05:49:05;;;;;;;3.63;1.30;;;;;;;11.72;72.97;99726.16;5030980;28;20525;-60
2022/06/01 05:51:36;;;;;;;1.90;1.27;;;;;;;12.40;72.76;99830.59;5033564;28;20045;-60
2022/06/01 05:54:06;;;;;;;4.40;1.20;;;;;;;12.45;72.77;99833.91;5033283;28;20045;-60
2022/06/01 05:56:37;;;;;;;3.92;1.40;;;;;;;12.39;72.36;99834.13;5033190;28;20079;-59
2022/06/01 05:59:07;;;;;;;1.77;1.10;;;;;;;12.29;72.58;99830.94;5033196;28;20359;-60
2022/06/01 06:01:39;;;;;;;7.93;1.05;;;;;;;12.22;72.87;99834.63;5033444;28;20099;-60
2022/06/01 06:04:10;;;;;;;3.88;1.10;;;;;;;12.25;72.85;99841.53;5032940;28;20049;-60
2022/06/01 06:06:40;;;;;;;5.63;1.10;;;;;;;12.23;72.41;99832.88;5032160;28;20076;-60
2022/06/01 06:09:12;;;;;;;4.38;1.02;;;;;;;11.96;72.44;99801.38;5033200;28;20045;-59
2022/06/01 06:11:42;;;;;;;12.82;1.70;;;;;;;11.87;72.80;99799.00;5033323;28;20053;-60
2022/06/01 06:14:13;;;;;;;10.63;1.20;;;;;;;11.96;73.18;99818.84;5030018;28;20065;-59
2022/06/01 06:16:46;;;;;;;2.30;1.00;;;;;;;11.81;73.32;99799.19;5032397;28;20711;-59
2022/06/01 06:19:18;;;;;;;1.65;1.10;;;;;;;11.96;73.61;99824.94;5032451;28;20206;-60
2022/06/01 06:21:48;;;;;;;9.00;1.67;;;;;;;11.94;73.66;99823.28;5032334;28;20065;-58
2022/06/01 06:24:21;;;;;;;7.07;1.20;;;;;;;11.66;73.86;99790.84;5032399;28;20055;-59
2022/06/01 06:26:51;;;;;;;3.63;0.90;;;;;;;11.80;74.00;99805.28;5032894;28;21037;-59
2022/06/01 06:29:21;;;;;;;1.17;0.73;;;;;;;11.90;73.60;99819.88;5032041;28;20041;-60
2022/06/01 06:31:54;;;;;;;3.10;1.90;;;;;;;11.90;73.52;99819.88;5033152;28;20045;-59
2022/06/01 06:34:24;;;;;;;2.30;1.02;;;;;;;11.84;73.42;99820.03;5033117;28;20075;-59
2022/06/01 06:36:56;;;;;;;1.95;1.00;;;;;;;11.91;74.09;99826.84;5033081;28;20057;-59
2022/06/01 06:39:26;;;;;;;6.55;1.80;;;;;;;11.89;73.77;99823.41;5032937;28;20053;-59
2022/06/01 06:41:57;;;;;;;3.47;1.50;;;;;;;11.79;73.56;99821.91;5032951;28;20104;-61
2022/06/01 06:44:27;;;;;;;7.15;1.20;;;;;;;11.69;73.50;99825.69;5032855;28;20046;-59
2022/06/01 06:46:59;;;;;;;7.40;1.33;;;;;;;11.62;74.39;99825.84;5032336;28;20096;-59
2022/06/01 06:49:30;;;;;;;3.00;2.05;;;;;;;11.62;74.50;99831.09;5032980;28;20175;-59
2022/06/01 06:52:00;;;;;;;6.05;2.92;;;;;;;11.51;74.22;99827.91;5032933;28;20994;-59
2022/06/01 06:54:31;;;;;;;1.98;1.20;;;;;;;11.35;74.39;99821.38;5032904;28;20115;-60
2022/06/01 06:57:01;;;;;;;3.42;1.10;;;;;;;11.33;74.72;99815.31;5032857;28;20045;-59
2022/06/01 06:59:32;;;;;;;4.05;1.23;;;;;;;10.93;74.29;99803.28;5032830;28;20581;-59
2022/06/01 07:02:04;;;;;;;3.45;1.08;;;;;;;10.71;75.35;99819.50;5032843;28;20053;-59
2022/06/01 07:04:35;;;;;;;6.00;1.60;;;;;;;10.63;76.60;99818.78;5032998;28;20538;-59
2022/06/01 07:07:06;;;;;;;11.52;1.95;;;;;;;10.49;76.98;99823.50;5032656;28;20092;-59
2022/06/01 07:09:37;;;;;;;11.23;2.35;;;;;;;10.31;77.77;99825.66;5034427;28;20057;-59
2022/06/01 07:12:08;;;;;;;5.85;1.70;;;;;;;10.18;78.70;99826.75;5036397;28;20061;-60
2022/06/01 07:14:38;;;;;;;8.43;2.25;;;;;;;9.86;78.90;99797.00;5036311;28;20120;-59
2022/06/01 07:17:10;;;;;;;4.68;1.33;;;;;;;9.98;78.85;99816.72;5035645;28;20382;-60
2022/06/01 07:19:41;;;;;;;9.27;2.05;;;;;;;9.94;79.00;99826.41;5036199;28;20060;-60
2022/06/01 07:22:11;;;;;;;10.18;1.77;;;;;;;9.79;79.04;99829.31;5036137;28;20232;-60
2022/06/01 07:24:42;;;;;;;10.90;1.80;;;;;;;9.64;79.50;99837.47;5036445;28;20058;-60
2022/06/01 07:27:12;;;;;;;12.73;2.20;;;;;;;9.52;80.11;99838.53;5036076;28;20279;-59
2022/06/01 07:29:42;;;;;;;6.95;1.40;;;;;;;9.38;80.70;99835.31;5034697;28;20060;-60
2022/06/01 07:32:15;;;;;;;7.88;1.67;;;;;;;9.24;80.96;99838.19;5034590;28;20049;-59
2022/06/01 07:34:45;;;;;;;15.10;2.47;;;;;;;9.09;81.47;99841.06;5034857;28;20061;-61
2022/06/01 07:43:10;;;;;;;7.35;1.90;;;;;;;8.86;82.83;99850.09;5035970;28;20067;-60
2022/06/01 07:45:44;;;;;;;11.27;1.80;;;;;;;8.75;83.33;99860.69;5035807;28;20084;-60
2022/06/01 07:48:17;;;;;;;20.50;4.72;;;;;;;8.51;83.20;99835.91;5035576;28;20142;-59
2022/06/01 07:51:08;;;;;;;9.00;2.33;;;;;;;8.61;83.42;99868.72;5035625;28;20057;-59
2022/06/01 07:53:38;;;;;;;8.93;1.95;;;;;;;8.58;83.48;99879.16;5035776;28;20555;-59
2022/06/01 07:56:09;;;;;;;7.60;2.03;;;;;;;8.48;83.55;99877.59;5035521;28;20120;-59
2022/06/01 07:58:39;;;;;;;13.27;2.03;;;;;;;8.43;83.81;99888.06;5035548;28;20116;-59
2022/06/01 08:01:10;;;;;;;6.07;2.13;;;;;;;8.43;84.03;99889.81;5035431;28;20060;-60
2022/06/01 08:03:42;;;;;;;11.30;2.00;;;;;;;8.50;84.24;99891.44;5035481;28;20052;-60
2022/06/01 08:06:13;;;;;;;10.77;1.80;;;;;;;8.47;83.71;99891.50;5035631;28;20320;-59
2022/06/01 08:09:04;;;;;;;11.85;2.10;;;;;;;8.36;83.52;99877.72;5035324;28;20320;-60
2022/06/01 08:14:19;;;;;;;7.00;2.05;;;;;;;8.35;84.24;99907.25;5007597;28;20263;-59
2022/06/01 08:16:50;;;;;;;10.95;2.58;;;;;;;8.30;84.41;99909.91;5035357;28;20049;-59
2022/06/01 08:19:22;;;;;;;9.25;2.03;;;;;;;8.28;84.75;99913.41;5035058;28;20053;-59
2022/06/01 08:21:52;;;;;;;11.38;3.88;;;;;;;8.17;85.17;99919.59;5034371;28;20068;-60
2022/06/01 08:24:23;;;;;;;28.70;9.30;;;;;;;8.17;85.72;99924.81;5035326;28;20099;-60
2022/06/01 08:26:53;;;;;;;26.20;8.93;;;;;;;8.16;85.92;99923.09;5035015;28;20069;-60
2022/06/01 08:29:24;;;;;;;63.13;21.98;;;;;;;8.03;86.11;99911.09;5035426;28;20084;-60
2022/06/01 08:31:54;;;;;;;97.63;33.92;;;;;;;8.07;86.89;99928.41;5035210;28;20326;-60
2022/06/01 08:34:26;;;;;;;38.70;12.27;;;;;;;8.11;87.23;99924.91;5035168;28;20049;-60
2022/06/01 08:36:57;;;;;;;23.40;9.40;;;;;;;8.10;87.03;99928.38;5035095;28;20614;-60
2022/06/01 08:39:27;;;;;;;14.75;3.30;;;;;;;8.06;87.29;99931.88;5034938;28;20109;-61
2022/06/01 08:41:59;;;;;;;7.30;2.45;;;;;;;7.91;87.29;99927.72;5034985;28;20089;-60
2022/06/01 08:44:33;;;;;;;9.35;1.75;;;;;;;7.97;87.78;99937.19;5034575;28;20052;-60
2022/06/01 08:47:07;;;;;;;9.60;1.60;;;;;;;7.96;88.09;99930.25;5034655;28;20049;-60
2022/06/01 08:49:41;;;;;;;9.70;2.03;;;;;;;7.93;88.22;99935.50;5034761;28;20060;-60
2022/06/01 08:52:12;;;;;;;6.68;2.40;;;;;;;7.87;88.14;99940.78;5034791;28;20059;-60
2022/06/01 08:54:42;;;;;;;7.10;2.33;;;;;;;7.86;88.60;99939.03;5034760;28;20084;-60
2022/06/01 08:57:19;;;;;;;8.05;1.70;;;;;;;7.57;88.69;99896.00;5034571;28;20049;-60
2022/06/01 09:00:00;;;;;;;6.85;1.83;;;;;;;7.88;88.98;99947.69;5034619;28;20060;-61
2022/06/01 09:02:45;;;;;;;5.55;1.95;;;;;;;7.93;88.89;99941.56;5033799;28;20061;-60
2022/06/01 09:05:23;;;;;;;8.38;1.60;;;;;;;7.93;88.89;99945.91;5034043;28;20059;-60
2022/06/01 09:07:56;;;;;;;6.63;2.20;;;;;;;7.77;88.84;99934.81;5033614;28;20444;-60
2022/06/01 09:10:43;;;;;;;4.22;1.80;;;;;;;7.78;89.03;99947.78;5033613;28;20356;-61
2022/06/01 09:13:19;;;;;;;6.70;1.52;;;;;;;7.74;89.33;99946.09;5034445;28;20056;-61
2022/06/01 09:15:54;;;;;;;7.30;1.60;;;;;;;7.71;89.43;99946.16;5034056;28;20053;-61
2022/06/01 09:18:29;;;;;;;4.40;1.98;;;;;;;7.77;89.72;99951.28;5034682;28;20060;-60
2022/06/01 09:23:48;;;;;;;5.53;2.00;;;;;;;7.68;89.39;99951.34;5042878;28;20049;-61
2022/06/01 09:26:27;;;;;;;7.32;1.92;;;;;;;7.55;89.67;99952.34;5043982;28;20348;-61
2022/06/01 09:29:00;;;;;;;7.38;2.83;;;;;;;7.56;90.03;99961.84;5043222;28;20100;-60
2022/06/01 09:31:38;;;;;;;8.65;2.38;;;;;;;7.49;90.16;99960.22;5041513;28;20061;-60
2022/06/01 09:34:18;;;;;;;7.07;2.05;;;;;;;7.56;90.42;99967.06;5042520;28;20048;-61
2022/06/01 09:37:05;;;;;;;;;;;;;;;7.51;90.38;99968.84;5041221;28;20045;-61
2022/06/01 09:39:38;;;;;;;2.95;1.77;;;;;;;7.43;90.31;99970.66;5038283;28;19916;-60
2022/06/01 09:42:15;;;;;;;6.50;2.40;;;;;;;6.83;90.76;99886.22;5040027;28;20232;-59
2022/06/01 09:44:48;;;;;;;5.93;2.30;;;;;;;7.27;90.58;99970.78;5042408;28;20041;-60
2022/06/01 09:47:39;;;;;;;6.28;2.42;;;;;;;7.34;91.02;99992.41;5043267;28;20097;-60
2022/06/01 09:50:25;;;;;;;6.88;2.40;;;;;;;7.32;91.08;99995.00;5043596;28;20352;-60
2022/06/01 09:53:01;;;;;;;5.03;2.15;;;;;;;7.31;91.22;99995.00;5044131;28;20084;-59
2022/06/01 09:55:33;;;;;;;7.93;3.60;;;;;;;7.32;91.14;100000.19;5043601;28;20133;-59
2022/06/01 09:58:09;;;;;;;5.18;2.75;;;;;;;7.27;91.21;99996.75;5043837;28;20152;-61
2022/06/01 10:06:26;;;;;;;5.20;2.30;;;;;;;7.28;91.63;100008.88;5043016;28;20229;-60
2022/06/01 10:09:00;;;;;;;5.20;2.67;;;;;;;7.31;91.37;100014.06;5043375;28;20120;-60
2022/06/01 10:11:40;;;;;;;6.28;2.72;;;;;;;7.27;91.77;100004.56;5043890;28;20053;-61
2022/06/01 10:14:30;;;;;;;6.70;2.40;;;;;;;7.26;91.74;100015.84;5043707;28;20633;-62
2022/06/01 10:17:21;;;;;;;5.45;3.00;;;;;;;6.54;91.50;99895.94;5041961;28;20292;-60
2022/06/01 10:20:09;;;;;;;7.55;3.30;;;;;;;7.16;91.56;100019.34;5043075;28;20047;-61
2022/06/01 10:22:44;;;;;;;8.63;3.85;;;;;;;7.03;91.57;100018.56;5043390;28;20335;-61
2022/06/01 10:25:19;;;;;;;10.55;3.88;;;;;;;7.03;91.65;100023.75;5043347;28;20293;-61
2022/06/01 10:27:55;;;;;;;10.18;4.78;;;;;;;7.03;91.78;100022.91;5042821;28;20068;-60
2022/06/01 10:30:28;;;;;;;12.68;4.95;;;;;;;6.93;92.20;100026.44;5043168;28;20327;-60
2022/06/01 10:33:04;;;;;;;13.90;4.50;;;;;;;6.95;92.42;100032.47;5043157;28;20053;-61
2022/06/01 10:35:41;;;;;;;6.55;2.90;;;;;;;6.95;92.13;100032.47;5042886;28;20057;-61
2022/06/01 10:38:18;;;;;;;5.03;3.05;;;;;;;6.81;91.81;100028.19;5042043;28;20049;-62
2022/06/01 10:40:54;;;;;;;4.82;3.00;;;;;;;6.75;92.01;100035.19;5041979;28;20061;-61
2022/06/01 10:43:45;;;;;;;5.20;3.20;;;;;;;6.68;92.35;100047.31;5043101;28;20076;-60
2022/06/01 10:46:40;;;;;;;5.10;2.33;;;;;;;6.63;92.26;100043.88;5046955;28;20071;-61
2022/06/01 10:49:19;;;;;;;3.63;2.13;;;;;;;6.58;91.85;100049.06;5046444;28;20104;-61
2022/06/01 10:51:58;;;;;;;4.20;1.95;;;;;;;6.60;92.04;100064.66;5047327;28;20061;-62
2022/06/01 10:54:43;;;;;;;3.47;2.25;;;;;;;6.48;91.90;100061.22;5044401;28;20057;-62
2022/06/01 10:57:20;;;;;;;5.28;2.10;;;;;;;6.50;92.29;100062.97;5046618;28;20076;-61
2022/06/01 10:59:52;;;;;;;4.85;2.17;;;;;;;6.45;91.96;100060.38;5046760;28;20278;-61
2022/06/01 11:02:47;;;;;;;3.40;1.70;;;;;;;6.38;91.90;100059.53;5046473;28;20052;-61
2022/06/01 11:05:29;;;;;;;5.57;1.83;;;;;;;6.26;92.00;100054.34;5046502;28;20059;-62
2022/06/01 11:08:09;;;;;;;4.25;1.80;;;;;;;6.15;92.39;100058.72;5046134;28;20052;-61
2022/06/01 11:10:46;;;;;;;;;;;;;;;6.13;92.58;100073.41;5045796;28;20092;-61
2022/06/01 11:13:33;;;;;;;3.80;2.00;;;;;;;5.94;92.49;100037.13;5045759;28;20224;-61
2022/06/01 11:16:20;;;;;;;3.50;1.92;;;;;;;6.12;92.98;100066.50;5046890;28;20099;-61
2022/06/01 11:19:03;;;;;;;3.38;1.90;;;;;;;6.12;93.01;100072.56;5046432;28;20057;-61
2022/06/01 11:21:43;;;;;;;4.78;2.20;;;;;;;5.59;93.10;100001.69;5045859;28;20045;-61
2022/06/01 11:24:42;;;;;;;4.45;2.10;;;;;;;6.25;93.47;100079.44;5045730;28;20053;-61
2022/06/01 11:27:24;;;;;;;3.70;2.47;;;;;;;6.33;93.25;100087.22;5044636;28;20076;-61
2022/06/01 11:30:07;;;;;;;5.40;2.65;;;;;;;6.38;92.80;100079.44;5046749;28;20096;-61
2022/06/01 11:32:44;;;;;;;8.30;2.75;;;;;;;6.39;92.92;100082.03;5045898;28;20594;-61
2022/06/01 11:35:22;;;;;;;7.82;3.10;;;;;;;6.34;92.40;100083.78;5045154;28;20065;-60
2022/06/01 11:38:00;;;;;;;6.72;3.38;;;;;;;6.27;92.50;100082.06;5046651;28;20057;-60
2022/06/01 11:40:42;;;;;;;6.25;3.45;;;;;;;6.18;92.19;100076.88;5046147;28;20060;-61
2022/06/01 11:43:22;;;;;;;5.40;3.40;;;;;;;6.20;92.39;100085.50;5045794;28;20109;-61
2022/06/01 11:45:58;;;;;;;9.55;3.97;;;;;;;6.16;92.52;100083.78;5045700;28;20095;-61
2022/06/01 11:48:33;;;;;;;5.20;3.15;;;;;;;6.14;92.36;100095.88;5046243;28;20095;-62
2022/06/01 11:51:21;;;;;;;3.75;2.60;;;;;;;6.09;92.53;100100.22;5046342;28;20088;-61
2022/06/01 11:54:04;;;;;;;7.55;2.55;;;;;;;6.11;92.38;100096.75;5046113;28;20168;-61
2022/06/01 11:56:45;;;;;;;4.47;2.47;;;;;;;5.96;92.46;100076.88;5046214;28;20065;-62
2022/06/01 11:59:23;;;;;;;6.75;3.00;;;;;;;5.57;92.50;100000.81;5044505;28;20049;-61
2022/06/01 12:02:20;;;;;;;5.00;2.58;;;;;;;6.07;92.56;100104.56;5045905;28;20136;-61
2022/06/01 12:05:21;;;;;;;7.05;2.65;;;;;;;6.07;92.74;100102.84;5045026;28;20336;-61
2022/06/01 12:07:55;;;;;;;3.45;2.30;;;;;;;5.52;92.26;100022.44;5044985;28;20362;-61
2022/06/01 12:10:30;;;;;;;4.18;1.80;;;;;;;5.94;92.35;100106.28;5044496;28;20044;-61
2022/06/01 12:13:07;;;;;;;4.57;1.70;;;;;;;5.84;92.51;100087.22;5043378;28;20060;-61
2022/06/01 12:15:50;;;;;;;3.78;1.92;;;;;;;5.98;92.97;100100.22;5044177;28;20054;-61
2022/06/01 12:18:29;;;;;;;4.25;2.33;;;;;;;6.12;93.26;100103.69;5044424;28;20083;-61
2022/06/01 12:21:30;;;;;;;7.10;2.35;;;;;;;6.16;92.67;100107.13;5044370;28;20109;-61
2022/06/01 12:30:13;;;;;;;24.17;3.00;;;;;;;5.76;92.93;100088.94;5045060;28;20091;-62
2022/06/01 12:33:12;;;;;;;5.80;2.65;;;;;;;5.83;93.16;100101.06;5045047;28;20059;-62
2022/06/01 12:35:48;;;;;;;12.50;2.63;;;;;;;5.76;93.03;100094.13;5045402;28;20076;-61
2022/06/01 12:38:26;;;;;;;8.40;2.90;;;;;;;5.73;93.15;100104.50;5044434;28;20056;-62
2022/06/01 12:41:01;;;;;;;5.97;2.75;;;;;;;5.78;93.57;100107.97;5044636;28;20037;-62
2022/06/01 12:43:32;;;;;;;5.70;2.65;;;;;;;5.74;93.98;100095.88;5045021;28;20057;-62